createdAt,value
2023-05-09T00:00:13.924Z,1001.58
2023-05-09T00:01:13.115Z,1001.58
2023-05-09T00:02:13.717Z,1001.57
2023-05-09T00:03:14.431Z,1001.60
2023-05-09T00:04:14.002Z,1001.57
2023-05-09T00:05:13.446Z,1001.57
2023-05-09T00:06:13.528Z,1001.55
2023-05-09T00:07:13.966Z,1001.54
2023-05-09T00:08:13.209Z,1001.50
2023-05-09T00:09:13.137Z,1001.54
2023-05-09T00:10:12.988Z,1001.47
2023-05-09T00:11:13.207Z,1001.51
2023-05-09T00:12:13.285Z,1001.51
2023-05-09T00:13:13.733Z,1001.49
2023-05-09T00:14:13.690Z,1001.47
2023-05-09T00:15:14.015Z,1001.47
2023-05-09T00:16:13.297Z,1001.44
2023-05-09T00:17:13.457Z,1001.38
2023-05-09T00:18:13.518Z,1001.42
2023-05-09T00:19:13.652Z,1001.40
2023-05-09T00:20:13.662Z,1001.35
2023-05-09T00:21:13.797Z,1001.35
2023-05-09T00:22:13.965Z,1001.33
2023-05-09T00:23:13.139Z,1001.32
2023-05-09T00:24:13.506Z,1001.32
2023-05-09T00:25:13.666Z,1001.30
2023-05-09T00:26:13.002Z,1001.30
2023-05-09T00:27:13.202Z,1001.27
2023-05-09T00:28:13.170Z,1001.26
2023-05-09T00:29:13.177Z,1001.24
2023-05-09T00:30:13.525Z,1001.25
2023-05-09T00:31:13.512Z,1001.26
2023-05-09T00:32:13.723Z,1001.26
2023-05-09T00:33:13.884Z,1001.25
2023-05-09T00:34:13.077Z,1001.24
2023-05-09T00:35:13.408Z,1001.28
2023-05-09T00:36:13.566Z,1001.26
2023-05-09T00:37:13.651Z,1001.26
2023-05-09T00:38:13.902Z,1001.23
2023-05-09T00:39:12.964Z,1001.24
2023-05-09T00:40:13.098Z,1001.21
2023-05-09T00:41:13.314Z,1001.19
2023-05-09T00:42:13.596Z,1001.18
2023-05-09T00:43:14.036Z,1001.15
2023-05-09T00:44:13.318Z,1001.15
2023-05-09T00:45:13.650Z,1001.11
2023-05-09T00:46:13.881Z,1001.11
2023-05-09T00:47:12.875Z,1001.08
2023-05-09T00:48:13.032Z,1001.08
2023-05-09T00:49:13.275Z,1001.07
2023-05-09T00:50:13.538Z,1001.05
2023-05-09T00:51:13.374Z,1001.06
2023-05-09T00:52:13.233Z,1001.03
2023-05-09T00:53:13.309Z,1001.00
2023-05-09T00:54:13.403Z,1001.00
2023-05-09T00:55:13.997Z,1001.00
2023-05-09T00:56:13.160Z,1000.96
2023-05-09T00:57:13.037Z,1000.89
2023-05-09T00:58:13.325Z,1000.85
2023-05-09T00:59:13.655Z,1000.82
2023-05-09T01:00:13.700Z,1000.81
2023-05-09T01:01:13.952Z,1000.79
2023-05-09T01:02:13.503Z,1000.80
2023-05-09T01:03:13.680Z,1000.80
2023-05-09T01:04:13.826Z,1000.79
2023-05-09T01:05:15.254Z,1000.79
2023-05-09T01:06:13.644Z,1000.78
2023-05-09T01:07:13.832Z,1000.76
2023-05-09T01:08:13.967Z,1000.75
2023-05-09T01:09:12.857Z,1000.71
2023-05-09T01:10:13.094Z,1000.70
2023-05-09T01:11:13.044Z,1000.68
2023-05-09T01:12:13.158Z,1000.67
2023-05-09T01:13:13.131Z,1000.62
2023-05-09T01:14:12.896Z,1000.64
2023-05-09T01:15:13.078Z,1000.63
2023-05-09T01:16:13.314Z,1000.57
2023-05-09T01:17:13.312Z,1000.60
2023-05-09T01:18:13.318Z,1000.56
2023-05-09T01:19:13.390Z,1000.53
2023-05-09T01:20:13.415Z,1000.55
2023-05-09T01:21:13.773Z,1000.50
2023-05-09T01:22:14.403Z,1000.50
2023-05-09T01:23:13.448Z,1000.50
2023-05-09T01:24:13.665Z,1000.48
2023-05-09T01:25:14.071Z,1000.47
2023-05-09T01:26:13.180Z,1000.47
2023-05-09T01:27:13.354Z,1000.46
2023-05-09T01:28:13.382Z,1000.45
2023-05-09T01:29:13.426Z,1000.46
2023-05-09T01:30:13.749Z,1000.44
2023-05-09T01:31:13.918Z,1000.44
2023-05-09T01:32:13.141Z,1000.46
2023-05-09T01:33:13.120Z,1000.41
2023-05-09T01:34:13.230Z,1000.45
2023-05-09T01:35:13.631Z,1000.47
2023-05-09T01:36:13.773Z,1000.43
2023-05-09T01:37:13.854Z,1000.44
2023-05-09T01:38:13.855Z,1000.45
2023-05-09T01:39:13.966Z,1000.46
2023-05-09T01:40:13.018Z,1000.43
2023-05-09T01:41:13.342Z,1000.43
2023-05-09T01:42:13.628Z,1000.38
2023-05-09T01:43:13.889Z,1000.41
2023-05-09T01:44:13.476Z,1000.37
2023-05-09T01:45:13.747Z,1000.36
2023-05-09T01:46:13.415Z,1000.36
2023-05-09T01:47:13.933Z,1000.37
2023-05-09T01:48:13.083Z,1000.30
2023-05-09T01:49:13.124Z,1000.32
2023-05-09T01:50:12.930Z,1000.29
2023-05-09T01:51:12.892Z,1000.28
2023-05-09T01:52:13.393Z,1000.26
2023-05-09T01:53:13.503Z,1000.28
2023-05-09T01:54:13.579Z,1000.25
2023-05-09T01:55:13.843Z,1000.21
2023-05-09T01:56:12.955Z,1000.23
2023-05-09T01:57:13.013Z,1000.21
2023-05-09T01:58:13.466Z,1000.18
2023-05-09T01:59:13.393Z,1000.22
2023-05-09T02:00:13.378Z,1000.19
2023-05-09T02:01:13.478Z,1000.16
2023-05-09T02:02:13.639Z,1000.21
2023-05-09T02:03:14.087Z,1000.23
2023-05-09T02:04:13.149Z,1000.23
2023-05-09T02:05:13.576Z,1000.24
2023-05-09T02:06:15.172Z,1000.27
2023-05-09T02:07:13.695Z,1000.26
2023-05-09T02:08:13.846Z,1000.23
2023-05-09T02:09:13.006Z,1000.23
2023-05-09T02:10:13.010Z,1000.25
2023-05-09T02:11:12.959Z,1000.23
2023-05-09T02:12:12.910Z,1000.25
2023-05-09T02:13:13.009Z,1000.27
2023-05-09T02:14:13.085Z,1000.27
2023-05-09T02:15:13.483Z,1000.28
2023-05-09T02:16:13.781Z,1000.28
2023-05-09T02:17:13.719Z,1000.24
2023-05-09T02:18:13.943Z,1000.24
2023-05-09T02:19:13.320Z,1000.21
2023-05-09T02:20:13.275Z,1000.21
2023-05-09T02:21:13.701Z,1000.23
2023-05-09T02:22:13.746Z,1000.22
2023-05-09T02:23:14.012Z,1000.23
2023-05-09T02:24:13.117Z,1000.18
2023-05-09T02:25:13.511Z,1000.17
2023-05-09T02:26:14.017Z,1000.20
2023-05-09T02:27:13.039Z,1000.17
2023-05-09T02:28:12.955Z,1000.22
2023-05-09T02:29:12.965Z,1000.21
2023-05-09T02:30:13.222Z,1000.23
2023-05-09T02:31:13.267Z,1000.21
2023-05-09T02:32:13.386Z,1000.17
2023-05-09T02:33:13.705Z,1000.16
2023-05-09T02:34:14.006Z,1000.15
2023-05-09T02:35:13.140Z,1000.14
2023-05-09T02:36:13.652Z,1000.15
2023-05-09T02:37:13.862Z,1000.10
2023-05-09T02:38:14.049Z,1000.09
2023-05-09T02:39:12.883Z,1000.11
2023-05-09T02:40:13.032Z,1000.14
2023-05-09T02:41:13.119Z,1000.14
2023-05-09T02:42:13.359Z,1000.16
2023-05-09T02:43:13.520Z,1000.19
2023-05-09T02:44:13.313Z,1000.18
2023-05-09T02:45:13.700Z,1000.18
2023-05-09T02:46:12.945Z,1000.17
2023-05-09T02:47:13.205Z,1000.16
2023-05-09T02:48:13.097Z,1000.16
2023-05-09T02:49:22.769Z,1000.18
2023-05-09T02:50:13.717Z,1000.17
2023-05-09T02:51:13.957Z,1000.15
2023-05-09T02:52:13.165Z,1000.13
2023-05-09T02:53:13.099Z,1000.16
2023-05-09T02:54:12.970Z,1000.18
2023-05-09T02:55:13.265Z,1000.16
2023-05-09T02:56:13.768Z,1000.15
2023-05-09T02:57:13.942Z,1000.19
2023-05-09T02:58:14.638Z,1000.14
2023-05-09T02:59:13.351Z,1000.17
2023-05-09T03:00:13.554Z,1000.14
2023-05-09T03:01:13.945Z,1000.15
2023-05-09T03:02:13.025Z,1000.13
2023-05-09T03:03:13.616Z,1000.07
2023-05-09T03:04:13.828Z,1000.08
2023-05-09T03:05:13.923Z,1000.05
2023-05-09T03:06:13.173Z,1000.07
2023-05-09T03:07:13.184Z,1000.02
2023-05-09T03:08:13.322Z,1000.01
2023-05-09T03:09:13.425Z,1000.02
2023-05-09T03:10:13.390Z,1000.03
2023-05-09T03:11:13.343Z,1000.06
2023-05-09T03:12:13.683Z,1000.07
2023-05-09T03:13:13.759Z,1000.05
2023-05-09T03:14:13.717Z,1000.05
2023-05-09T03:15:13.839Z,1000.05
2023-05-09T03:16:13.080Z,1000.03
2023-05-09T03:17:13.150Z,1000.07
2023-05-09T03:18:13.145Z,1000.03
2023-05-09T03:19:13.227Z,1000.03
2023-05-09T03:20:13.327Z,1000.04
2023-05-09T03:21:13.429Z,1000.01
2023-05-09T03:22:13.494Z,1000.01
2023-05-09T03:23:13.893Z,999.99
2023-05-09T03:24:13.049Z,999.95
2023-05-09T03:25:13.584Z,999.94
2023-05-09T03:26:13.193Z,999.92
2023-05-09T03:27:13.159Z,999.91
2023-05-09T03:28:13.445Z,999.93
2023-05-09T03:29:13.728Z,999.89
2023-05-09T03:30:18.866Z,999.90
2023-05-09T03:31:14.135Z,999.89
2023-05-09T03:32:15.142Z,999.90
2023-05-09T03:33:13.424Z,999.84
2023-05-09T03:34:13.471Z,999.86
2023-05-09T03:35:13.826Z,999.83
2023-05-09T03:36:13.093Z,999.82
2023-05-09T03:37:13.115Z,999.79
2023-05-09T03:38:13.141Z,999.77
2023-05-09T03:39:13.302Z,999.80
2023-05-09T03:41:32.884Z,999.73
2023-05-09T03:42:13.073Z,999.74
2023-05-09T03:43:13.260Z,999.75
2023-05-09T03:44:13.340Z,999.73
2023-05-09T03:45:14.276Z,999.72
2023-05-09T03:46:13.475Z,999.75
2023-05-09T03:49:13.681Z,999.78
2023-05-09T03:49:44.511Z,999.76
2023-05-09T03:50:13.901Z,999.73
2023-05-09T03:51:13.021Z,999.76
2023-05-09T03:52:13.231Z,999.76
2023-05-09T03:53:13.423Z,999.73
2023-05-09T03:54:13.695Z,999.80
2023-05-09T03:55:14.128Z,999.76
2023-05-09T03:56:13.370Z,999.77
2023-05-09T03:57:13.225Z,999.81
2023-05-09T03:58:13.465Z,999.78
2023-05-09T03:59:13.507Z,999.81
2023-05-09T04:00:13.634Z,999.79
2023-05-09T04:01:13.692Z,999.81
2023-05-09T04:02:13.866Z,999.75
2023-05-09T04:03:13.258Z,999.75
2023-05-09T04:04:13.667Z,999.79
2023-05-09T04:05:14.422Z,999.77
2023-05-09T04:06:13.657Z,999.78
2023-05-09T04:07:13.836Z,999.79
2023-05-09T04:08:13.909Z,999.75
2023-05-09T04:09:13.051Z,999.76
2023-05-09T04:10:13.240Z,999.75
2023-05-09T04:11:13.483Z,999.76
2023-05-09T04:12:13.511Z,999.74
2023-05-09T04:13:23.818Z,999.74
2023-05-09T04:14:12.959Z,999.72
2023-05-09T04:15:13.382Z,999.72
2023-05-09T04:17:13.989Z,999.71
2023-05-09T04:18:12.986Z,999.71
2023-05-09T04:19:13.494Z,999.68
2023-05-09T04:20:41.431Z,999.72
2023-05-09T04:22:13.873Z,999.71
2023-05-09T04:23:13.901Z,999.66
2023-05-09T04:24:12.999Z,999.65
2023-05-09T04:25:14.001Z,999.62
2023-05-09T04:26:13.203Z,999.67
2023-05-09T04:27:13.269Z,999.65
2023-05-09T04:28:13.204Z,999.60
2023-05-09T04:29:13.200Z,999.64
2023-05-09T04:30:21.631Z,999.59
2023-05-09T04:31:13.971Z,999.60
2023-05-09T04:32:13.124Z,999.60
2023-05-09T04:33:13.209Z,999.62
2023-05-09T04:34:13.242Z,999.62
2023-05-09T04:35:13.959Z,999.64
2023-05-09T04:36:13.270Z,999.58
2023-05-09T04:37:13.418Z,999.61
2023-05-09T04:38:18.802Z,999.61
2023-05-09T04:39:13.731Z,999.59
2023-05-09T04:40:13.882Z,999.58
2023-05-09T04:41:13.037Z,999.55
2023-05-09T04:42:13.206Z,999.50
2023-05-09T04:43:13.488Z,999.50
2023-05-09T04:44:13.516Z,999.52
2023-05-09T04:45:13.924Z,999.51
2023-05-09T04:46:13.534Z,999.52
2023-05-09T04:47:13.496Z,999.46
2023-05-09T04:48:13.499Z,999.46
2023-05-09T04:49:13.663Z,999.47
2023-05-09T04:50:13.616Z,999.44
2023-05-09T04:51:13.673Z,999.44
2023-05-09T04:52:13.860Z,999.42
2023-05-09T04:53:13.869Z,999.40
2023-05-09T04:54:15.270Z,999.41
2023-05-09T04:55:13.882Z,999.35
2023-05-09T04:56:12.934Z,999.35
2023-05-09T04:57:17.925Z,999.39
2023-05-09T04:58:13.243Z,999.37
2023-05-09T04:59:13.287Z,999.31
2023-05-09T05:00:13.319Z,999.36
2023-05-09T05:01:13.201Z,999.35
2023-05-09T05:02:13.653Z,999.32
2023-05-09T05:03:13.906Z,999.37
2023-05-09T05:04:12.913Z,999.35
2023-05-09T05:05:12.983Z,999.35
2023-05-09T05:06:12.751Z,999.30
2023-05-09T05:07:14.021Z,999.33
2023-05-09T05:08:13.406Z,999.32
2023-05-09T05:09:13.471Z,999.30
2023-05-09T05:10:13.540Z,999.29
2023-05-09T05:11:13.437Z,999.28
2023-05-09T05:12:13.872Z,999.27
2023-05-09T05:13:13.976Z,999.30
2023-05-09T05:14:13.047Z,999.28
2023-05-09T05:15:13.211Z,999.31
2023-05-09T05:16:13.383Z,999.29
2023-05-09T05:17:13.567Z,999.29
2023-05-09T05:18:14.855Z,999.27
2023-05-09T05:19:14.088Z,999.28
2023-05-09T05:20:13.269Z,999.28
2023-05-09T05:21:13.300Z,999.25
2023-05-09T05:22:14.836Z,999.26
2023-05-09T05:23:13.120Z,999.24
2023-05-09T05:24:13.010Z,999.25
2023-05-09T05:25:13.393Z,999.19
2023-05-09T05:26:13.495Z,999.20
2023-05-09T05:27:13.284Z,999.16
2023-05-09T05:28:13.513Z,999.19
2023-05-09T05:29:13.491Z,999.15
2023-05-09T05:30:13.525Z,999.14
2023-05-09T05:31:13.560Z,999.15
2023-05-09T05:32:13.461Z,999.15
2023-05-09T05:33:13.357Z,999.13
2023-05-09T05:34:13.366Z,999.11
2023-05-09T05:35:13.976Z,999.15
2023-05-09T05:36:13.222Z,999.17
2023-05-09T05:37:13.347Z,999.16
2023-05-09T05:38:13.634Z,999.14
2023-05-09T05:39:13.586Z,999.14
2023-05-09T05:40:13.811Z,999.16
2023-05-09T05:41:13.848Z,999.15
2023-05-09T05:42:14.119Z,999.18
2023-05-09T05:43:13.282Z,999.14
2023-05-09T05:44:17.122Z,999.14
2023-05-09T05:45:13.321Z,999.15
2023-05-09T05:46:23.878Z,999.11
2023-05-09T05:47:13.029Z,999.11
2023-05-09T05:48:13.451Z,999.13
2023-05-09T05:49:13.409Z,999.08
2023-05-09T05:50:13.687Z,999.08
2023-05-09T05:51:13.842Z,999.04
2023-05-09T05:52:14.290Z,999.06
2023-05-09T05:53:13.712Z,999.05
2023-05-09T05:54:13.781Z,999.03
2023-05-09T05:55:14.301Z,999.04
2023-05-09T05:56:13.636Z,999.03
2023-05-09T05:57:13.975Z,999.03
2023-05-09T05:58:13.291Z,999.04
2023-05-09T05:59:13.719Z,999.04
2023-05-09T06:00:13.598Z,999.02
2023-05-09T06:01:13.755Z,999.03
2023-05-09T06:02:13.814Z,999.04
2023-05-09T06:03:19.106Z,999.02
2023-05-09T06:04:13.361Z,999.04
2023-05-09T06:05:14.080Z,998.99
2023-05-09T06:06:13.364Z,999.01
2023-05-09T06:07:13.755Z,999.01
2023-05-09T06:08:13.244Z,999.02
2023-05-09T06:09:13.289Z,998.98
2023-05-09T06:10:13.207Z,999.03
2023-05-09T06:11:13.460Z,999.00
2023-05-09T06:12:13.402Z,999.00
2023-05-09T06:13:13.614Z,998.97
2023-05-09T06:14:13.880Z,998.96
2023-05-09T06:15:13.644Z,998.96
2023-05-09T06:16:19.653Z,999.00
2023-05-09T06:17:13.555Z,998.98
2023-05-09T06:18:13.693Z,998.94
2023-05-09T06:19:13.813Z,998.96
2023-05-09T06:20:13.713Z,998.95
2023-05-09T06:21:13.643Z,998.94
2023-05-09T06:22:13.465Z,998.92
2023-05-09T06:23:13.754Z,998.93
2023-05-09T06:24:20.155Z,998.86
2023-05-09T06:25:13.319Z,998.87
2023-05-09T06:26:13.493Z,998.85
2023-05-09T06:27:13.444Z,998.86
2023-05-09T06:28:13.725Z,998.84
2023-05-09T06:29:14.027Z,998.83
2023-05-09T06:30:24.717Z,998.80
2023-05-09T06:31:13.224Z,998.81
2023-05-09T06:32:13.156Z,998.81
2023-05-09T06:33:13.526Z,998.82
2023-05-09T06:34:13.566Z,998.81
2023-05-09T06:35:13.940Z,998.74
2023-05-09T06:36:13.248Z,998.75
2023-05-09T06:37:13.125Z,998.76
2023-05-09T06:38:13.425Z,998.73
2023-05-09T06:39:13.662Z,998.73
2023-05-09T06:40:13.998Z,998.69
2023-05-09T06:41:13.162Z,998.67
2023-05-09T06:42:13.577Z,998.63
2023-05-09T06:43:13.459Z,998.62
2023-05-09T06:44:13.466Z,998.58
2023-05-09T06:45:14.170Z,998.61
2023-05-09T06:46:13.820Z,998.59
2023-05-09T06:47:13.757Z,998.56
2023-05-09T06:48:13.680Z,998.58
2023-05-09T06:49:13.861Z,998.58
2023-05-09T06:50:13.937Z,998.58
2023-05-09T06:51:12.917Z,998.59
2023-05-09T06:52:13.118Z,998.55
2023-05-09T06:53:13.170Z,998.52
2023-05-09T06:54:13.630Z,998.55
2023-05-09T06:55:13.807Z,998.55
2023-05-09T06:56:13.286Z,998.53
2023-05-09T06:57:13.239Z,998.55
2023-05-09T06:58:13.395Z,998.52
2023-05-09T06:59:13.286Z,998.50
2023-05-09T07:00:13.397Z,998.44
2023-05-09T07:01:14.201Z,998.44
2023-05-09T07:02:13.528Z,998.47
2023-05-09T07:03:13.551Z,998.39
2023-05-09T07:04:13.558Z,998.43
2023-05-09T07:05:13.816Z,998.36
2023-05-09T07:06:13.348Z,998.37
2023-05-09T07:07:13.616Z,998.35
2023-05-09T07:08:13.641Z,998.36
2023-05-09T07:09:13.674Z,998.37
2023-05-09T07:10:13.836Z,998.37
2023-05-09T07:11:13.847Z,998.34
2023-05-09T07:12:14.018Z,998.38
2023-05-09T07:13:13.241Z,998.36
2023-05-09T07:14:13.645Z,998.37
2023-05-09T07:15:15.568Z,998.37
2023-05-09T07:16:13.580Z,998.33
2023-05-09T07:17:22.984Z,998.32
2023-05-09T07:18:13.924Z,998.32
2023-05-09T07:19:13.309Z,998.27
2023-05-09T07:20:13.161Z,998.24
2023-05-09T07:21:13.108Z,998.22
2023-05-09T07:22:13.040Z,998.16
2023-05-09T07:23:13.277Z,998.17
2023-05-09T07:24:13.490Z,998.20
2023-05-09T07:25:13.649Z,998.18
2023-05-09T07:26:13.774Z,998.17
2023-05-09T07:27:14.049Z,998.14
2023-05-09T07:28:13.405Z,998.07
2023-05-09T07:29:13.521Z,998.09
2023-05-09T07:30:14.017Z,998.04
2023-05-09T07:31:14.214Z,998.03
2023-05-09T07:32:13.019Z,997.98
2023-05-09T07:33:13.352Z,997.99
2023-05-09T07:34:13.607Z,997.95
2023-05-09T07:35:14.123Z,997.98
2023-05-09T07:36:13.412Z,997.96
2023-05-09T07:37:15.366Z,997.96
2023-05-09T07:38:13.687Z,997.93
2023-05-09T07:39:13.724Z,997.95
2023-05-09T07:40:14.545Z,997.95
2023-05-09T07:41:13.055Z,997.91
2023-05-09T07:42:13.301Z,997.89
2023-05-09T07:43:13.304Z,997.89
2023-05-09T07:44:13.289Z,997.90
2023-05-09T07:45:19.447Z,997.88
2023-05-09T07:46:13.415Z,997.89
2023-05-09T07:47:13.307Z,997.87
2023-05-09T07:48:13.586Z,997.91
2023-05-09T07:49:13.897Z,997.89
2023-05-09T07:50:13.127Z,997.91
2023-05-09T07:51:13.080Z,997.81
2023-05-09T07:52:12.906Z,997.83
2023-05-09T07:53:12.781Z,997.86
2023-05-09T07:54:13.998Z,997.84
2023-05-09T07:55:13.260Z,997.80
2023-05-09T07:56:13.391Z,997.79
2023-05-09T07:57:13.334Z,997.79
2023-05-09T07:58:13.500Z,997.85
2023-05-09T07:59:13.772Z,997.84
2023-05-09T08:00:13.766Z,997.82
2023-05-09T08:01:13.753Z,997.79
2023-05-09T08:02:13.936Z,997.73
2023-05-09T08:03:13.037Z,997.74
2023-05-09T08:04:13.186Z,997.74
2023-05-09T08:05:13.904Z,997.68
2023-05-09T08:06:13.284Z,997.69
2023-05-09T08:07:13.231Z,997.68
2023-05-09T08:08:13.482Z,997.70
2023-05-09T08:09:13.288Z,997.61
2023-05-09T08:10:13.316Z,997.60
2023-05-09T08:11:13.273Z,997.61
2023-05-09T08:12:13.352Z,997.58
2023-05-09T08:13:13.516Z,997.60
2023-05-09T08:14:15.551Z,997.58
2023-05-09T08:15:14.164Z,997.59
2023-05-09T08:16:13.516Z,997.57
2023-05-09T08:17:13.687Z,997.59
2023-05-09T08:18:13.655Z,997.56
2023-05-09T08:19:13.740Z,997.52
2023-05-09T08:20:13.593Z,997.57
2023-05-09T08:21:13.550Z,997.54
2023-05-09T08:22:13.897Z,997.56
2023-05-09T08:23:13.062Z,997.46
2023-05-09T08:24:13.037Z,997.48
2023-05-09T08:25:13.214Z,997.49
2023-05-09T08:26:13.263Z,997.49
2023-05-09T08:27:13.421Z,997.49
2023-05-09T08:28:13.482Z,997.48
2023-05-09T08:29:13.514Z,997.48
2023-05-09T08:30:13.782Z,997.49
2023-05-09T08:31:13.722Z,997.42
2023-05-09T08:32:13.900Z,997.47
2023-05-09T08:33:13.003Z,997.44
2023-05-09T08:34:13.035Z,997.43
2023-05-09T08:35:13.140Z,997.42
2023-05-09T08:36:13.417Z,997.39
2023-05-09T08:37:15.086Z,997.40
2023-05-09T08:38:13.560Z,997.44
2023-05-09T08:39:13.735Z,997.43
2023-05-09T08:40:14.174Z,997.46
2023-05-09T08:41:13.182Z,997.46
2023-05-09T08:42:13.171Z,997.44
2023-05-09T08:43:13.424Z,997.40
2023-05-09T08:44:13.433Z,997.40
2023-05-09T08:45:13.528Z,997.41
2023-05-09T08:46:13.621Z,997.32
2023-05-09T08:47:13.652Z,997.30
2023-05-09T08:48:13.652Z,997.30
2023-05-09T08:49:35.024Z,997.28
2023-05-09T08:50:13.415Z,997.26
2023-05-09T08:51:13.803Z,997.22
2023-05-09T08:52:13.917Z,997.30
2023-05-09T08:53:12.936Z,997.26
2023-05-09T08:54:12.984Z,997.27
2023-05-09T08:55:12.982Z,997.19
2023-05-09T08:56:28.155Z,997.19
2023-05-09T08:57:13.076Z,997.19
2023-05-09T08:58:13.442Z,997.20
2023-05-09T08:59:13.584Z,997.16
2023-05-09T09:00:14.561Z,997.15
2023-05-09T09:01:13.578Z,997.13
2023-05-09T09:02:14.006Z,997.13
2023-05-09T09:03:13.244Z,997.14
2023-05-09T09:04:13.327Z,997.13
2023-05-09T09:05:29.063Z,997.11
2023-05-09T09:06:13.919Z,997.11
2023-05-09T09:07:12.848Z,997.12
2023-05-09T09:08:18.986Z,997.07
2023-05-09T09:09:17.966Z,997.11
2023-05-09T09:10:13.713Z,997.05
2023-05-09T09:11:17.884Z,997.08
2023-05-09T09:12:13.934Z,997.03
2023-05-09T09:13:13.214Z,997.02
2023-05-09T09:14:13.489Z,997.00
2023-05-09T09:15:13.868Z,996.98
2023-05-09T09:16:13.960Z,997.00
2023-05-09T09:17:13.113Z,997.04
2023-05-09T09:18:13.160Z,996.92
2023-05-09T09:19:13.199Z,996.95
2023-05-09T09:20:18.494Z,996.90
2023-05-09T09:21:13.810Z,996.96
2023-05-09T09:22:13.827Z,996.91
2023-05-09T09:23:14.020Z,996.90
2023-05-09T09:24:13.050Z,996.88
2023-05-09T09:25:12.976Z,996.84
2023-05-09T09:26:13.403Z,996.85
2023-05-09T09:27:13.525Z,996.84
2023-05-09T09:28:13.509Z,996.81
2023-05-09T09:29:19.902Z,996.78
2023-05-09T09:30:13.954Z,996.77
2023-05-09T09:32:13.558Z,996.80
2023-05-09T09:33:13.885Z,996.75
2023-05-09T09:34:12.942Z,996.78
2023-05-09T09:35:13.001Z,996.71
2023-05-09T09:36:13.193Z,996.65
2023-05-09T09:37:18.874Z,996.69
2023-05-09T09:38:13.902Z,996.64
2023-05-09T09:39:12.956Z,996.61
2023-05-09T09:40:13.162Z,996.58
2023-05-09T09:41:13.401Z,996.70
2023-05-09T09:42:13.675Z,996.66
2023-05-09T09:43:13.941Z,996.61
2023-05-09T09:44:12.895Z,996.62
2023-05-09T09:45:13.015Z,996.61
2023-05-09T09:46:28.547Z,996.60
2023-05-09T09:47:13.448Z,996.65
2023-05-09T09:48:13.641Z,996.66
2023-05-09T09:49:13.714Z,996.60
2023-05-09T09:50:14.099Z,996.64
2023-05-09T09:51:13.259Z,996.63
2023-05-09T09:52:13.332Z,996.63
2023-05-09T09:53:13.324Z,996.58
2023-05-09T09:54:23.414Z,996.62
2023-05-09T09:55:13.958Z,996.54
2023-05-09T09:56:13.154Z,996.59
2023-05-09T09:57:13.198Z,996.51
2023-05-09T09:58:13.148Z,996.51
2023-05-09T09:59:13.218Z,996.51
2023-05-09T10:00:13.552Z,996.55
2023-05-09T10:01:14.021Z,996.50
2023-05-09T10:02:13.387Z,996.42
2023-05-09T10:03:13.683Z,996.46
2023-05-09T10:04:18.829Z,996.47
2023-05-09T10:05:14.200Z,996.45
2023-05-09T10:06:14.074Z,996.47
2023-05-09T10:07:14.858Z,996.44
2023-05-09T10:08:13.240Z,996.38
2023-05-09T10:09:13.373Z,996.38
2023-05-09T10:10:18.881Z,996.37
2023-05-09T10:11:13.038Z,996.30
2023-05-09T10:12:13.676Z,996.31
2023-05-09T10:13:18.780Z,996.30
2023-05-09T10:14:14.201Z,996.19
2023-05-09T10:15:13.222Z,996.25
2023-05-09T10:16:13.421Z,996.21
2023-05-09T10:17:13.551Z,996.25
2023-05-09T10:18:14.056Z,996.22
2023-05-09T10:19:13.349Z,996.24
2023-05-09T10:20:13.612Z,996.24
2023-05-09T10:21:14.250Z,996.19
2023-05-09T10:22:23.349Z,996.18
2023-05-09T10:23:13.640Z,996.15
2023-05-09T10:24:13.636Z,996.14
2023-05-09T10:25:13.907Z,996.11
2023-05-09T10:26:13.447Z,996.12
2023-05-09T10:27:13.496Z,996.10
2023-05-09T10:28:13.358Z,996.09
2023-05-09T10:29:13.336Z,995.99
2023-05-09T10:30:13.706Z,996.05
2023-05-09T10:31:33.681Z,996.01
2023-05-09T10:32:14.006Z,996.03
2023-05-09T10:33:12.979Z,996.04
2023-05-09T10:34:13.101Z,996.01
2023-05-09T10:35:13.840Z,996.04
2023-05-09T10:36:13.319Z,995.96
2023-05-09T10:37:13.274Z,995.95
2023-05-09T10:38:13.773Z,995.90
2023-05-09T10:39:13.791Z,995.94
2023-05-09T10:40:13.882Z,995.96
2023-05-09T10:41:13.016Z,995.90
2023-05-09T10:42:13.378Z,995.85
2023-05-09T10:43:13.309Z,995.86
2023-05-09T10:44:13.449Z,995.87
2023-05-09T10:45:14.104Z,995.85
2023-05-09T10:46:13.552Z,995.91
2023-05-09T10:47:14.004Z,995.91
2023-05-09T10:48:13.065Z,995.94
2023-05-09T10:49:18.394Z,995.85
2023-05-09T10:50:13.559Z,995.89
2023-05-09T10:51:18.740Z,995.82
2023-05-09T10:52:13.986Z,995.82
2023-05-09T10:53:13.208Z,995.76
2023-05-09T10:54:13.259Z,995.81
2023-05-09T10:55:13.564Z,995.83
2023-05-09T10:56:13.641Z,995.73
2023-05-09T10:57:13.559Z,995.77
2023-05-09T10:58:13.485Z,995.81
2023-05-09T10:59:13.378Z,995.77
2023-05-09T11:00:14.845Z,995.76
2023-05-09T11:01:14.213Z,995.69
2023-05-09T11:02:13.715Z,995.71
2023-05-09T11:03:13.912Z,995.63
2023-05-09T11:04:23.258Z,995.69
2023-05-09T11:05:13.591Z,995.67
2023-05-09T11:06:13.762Z,995.60
2023-05-09T11:07:13.909Z,995.58
2023-05-09T11:08:13.029Z,995.59
2023-05-09T11:09:12.957Z,995.59
2023-05-09T11:10:13.107Z,995.57
2023-05-09T11:11:13.125Z,995.56
2023-05-09T11:12:13.104Z,995.54
2023-05-09T11:13:13.218Z,995.48
2023-05-09T11:14:13.474Z,995.45
2023-05-09T11:15:13.946Z,995.49
2023-05-09T11:16:13.173Z,995.49
2023-05-09T11:17:13.308Z,995.49
2023-05-09T11:18:13.549Z,995.40
2023-05-09T11:19:13.835Z,995.45
2023-05-09T11:20:13.733Z,995.40
2023-05-09T11:21:14.109Z,995.43
2023-05-09T11:22:13.252Z,995.38
2023-05-09T11:23:18.704Z,995.34
2023-05-09T11:24:14.064Z,995.37
2023-05-09T11:25:23.017Z,995.38
2023-05-09T11:26:13.365Z,995.38
2023-05-09T11:27:13.486Z,995.33
2023-05-09T11:28:20.033Z,995.32
2023-05-09T11:29:18.755Z,995.33
2023-05-09T11:30:14.277Z,995.27
2023-05-09T11:31:18.899Z,995.38
2023-05-09T11:32:13.297Z,995.37
2023-05-09T11:33:13.608Z,995.29
2023-05-09T11:34:13.754Z,995.30
2023-05-09T11:35:14.002Z,995.27
2023-05-09T11:36:13.158Z,995.27
2023-05-09T11:37:13.177Z,995.28
2023-05-09T11:38:13.334Z,995.23
2023-05-09T11:39:13.372Z,995.23
2023-05-09T11:40:13.386Z,995.17
2023-05-09T11:41:13.587Z,995.12
2023-05-09T11:42:13.770Z,995.13
2023-05-09T11:43:13.896Z,995.07
2023-05-09T11:44:13.170Z,995.09
2023-05-09T11:45:13.701Z,995.11
2023-05-09T11:46:13.037Z,995.12
2023-05-09T11:47:13.184Z,995.07
2023-05-09T11:48:13.609Z,995.05
2023-05-09T11:49:13.916Z,995.04
2023-05-09T11:50:13.250Z,995.05
2023-05-09T11:51:13.218Z,994.99
2023-05-09T11:52:13.334Z,994.98
2023-05-09T11:53:13.461Z,995.02
2023-05-09T11:54:13.530Z,994.96
2023-05-09T11:55:14.360Z,995.02
2023-05-09T11:56:23.781Z,994.98
2023-05-09T11:57:13.723Z,994.94
2023-05-09T11:58:13.999Z,994.91
2023-05-09T11:59:13.392Z,994.91
2023-05-09T12:00:13.466Z,994.86
2023-05-09T12:01:13.613Z,994.87
2023-05-09T12:02:13.755Z,994.85
2023-05-09T12:03:13.872Z,994.83
2023-05-09T12:04:13.270Z,994.85
2023-05-09T12:05:13.676Z,994.78
2023-05-09T12:06:24.303Z,994.79
2023-05-09T12:07:14.137Z,994.80
2023-05-09T12:08:13.337Z,994.80
2023-05-09T12:09:13.527Z,994.74
2023-05-09T12:10:13.644Z,994.75
2023-05-09T12:11:13.856Z,994.74
2023-05-09T12:12:15.255Z,994.67
2023-05-09T12:13:18.611Z,994.69
2023-05-09T12:14:13.957Z,994.71
2023-05-09T12:15:13.016Z,994.63
2023-05-09T12:16:13.324Z,994.64
2023-05-09T12:17:18.538Z,994.68
2023-05-09T12:18:13.863Z,994.68
2023-05-09T12:19:14.166Z,994.69
2023-05-09T12:20:13.266Z,994.69
2023-05-09T12:21:13.304Z,994.65
2023-05-09T12:22:13.258Z,994.64
2023-05-09T12:23:13.206Z,994.60
2023-05-09T12:24:13.270Z,994.53
2023-05-09T12:25:13.503Z,994.54
2023-05-09T12:26:13.786Z,994.50
2023-05-09T12:27:13.981Z,994.43